Vansant, VA (24656)

5:22 PM EDT on July 30, 2016 (GMT -0400)
Southwest Virginia, 4 miles SSE | | Change Station

Elev 2650 ft 37.02 °N, 82.32 °W | Updated 1 minute ago

Mostly Cloudy
Mostly Cloudy
78.2 °F
Feels Like 81 °F
N
1.0
Wind Variable Wind from South
Gusts 10.0 mph

Today
High -- | Low -- °F
--% Chance of Precip.
Yesterday
High -- | Low -- °F
Precip. -- in
Pressure 30.07 in
Visibility 10.0 miles
Clouds Mostly Cloudy 2900 ft
Mostly Cloudy 3700 ft
Heat Index 81 °F
Dew Point 71 °F
Humidity 79%
Rainfall Not available.
Snow Depth Not available.
6:32 AM 8:37 PM
Waning Crescent, 11% visible
METAR KJFZ 302115Z AUTO 23004KT 10SM BKN029 BKN037 26/21 A3007 RMK AO2 T02580208
Pressure 30.07 in
Visibility 10.0 miles
Clouds Mostly Cloudy 2900 ft
Mostly Cloudy 3700 ft
Heat Index 81 °F
Dew Point 71 °F
Humidity 79%
Rainfall Not available.
Snow Depth Not available.
6:32 AM 8:37 PM
Waning Crescent, 11% visible
METAR KJFZ 302115Z AUTO 23004KT 10SM BKN029 BKN037 26/21 A3007 RMK AO2 T02580208

10-Day Weather Forecast

Almanac

Astronomy

Jul. 30, 2016 Rise Set
Actual Time
Civil Twilight
Nautical Twilight
Astronomical Twilight
Moon
Length of Visible Light
Length of Day
Tomorrow will be .
, % of the Moon is Illuminated

Today's Extremes

State Highs State Lows

Community

WunderPhotos

Upload Photos

1,928,648 photos uploaded!

WunderBlog® & News

Nearby

Air Quality

  Air Quality AQ Index Pollutant
Not available.

Snow Depth

Station Depth Elevation

Earthquake Activity

City Distance Mag. Time & Date
Minimum magnitude displayed is 2.5.

Coastal Water Temperatures

Place Temperature

Stations

Nearby Weather Stations

Station Location Temp. Windchill Dew Point Humidity Wind Precip. Elev Updated Type
                   

Watches & Warnings

There are currently no watches in effect.